createdAt,value
2023-03-12T00:02:21.524Z,81.50
2023-03-12T00:04:48.364Z,80.30
2023-03-12T00:07:15.162Z,80.30
2023-03-12T00:09:41.928Z,80.10
2023-03-12T00:12:09.223Z,80.20
2023-03-12T00:14:36.906Z,80.30
2023-03-12T00:17:03.831Z,80.20
2023-03-12T00:19:30.730Z,80.40
2023-03-12T00:21:57.670Z,80.20
2023-03-12T00:24:24.635Z,80.20
2023-03-12T00:26:51.432Z,80.40
2023-03-12T00:29:18.241Z,80.30
2023-03-12T00:31:45.103Z,80.10
2023-03-12T00:34:11.976Z,80.50
2023-03-12T00:36:40.672Z,80.30
2023-03-12T00:39:07.757Z,80.40
2023-03-12T00:41:34.766Z,80.50
2023-03-12T00:44:01.759Z,81.70
2023-03-12T00:46:29.242Z,80.20
2023-03-12T00:48:56.029Z,80.40
2023-03-12T00:51:23.150Z,80.50
2023-03-12T00:53:50.013Z,80.30
2023-03-12T00:56:17.003Z,80.10
2023-03-12T00:58:43.812Z,80.30
2023-03-12T01:01:12.114Z,80.10
2023-03-12T01:03:38.968Z,80.30
2023-03-12T01:06:06.253Z,81.50
2023-03-12T01:08:33.477Z,80.40
2023-03-12T01:11:00.781Z,80.30
2023-03-12T01:13:27.920Z,80.50
2023-03-12T01:15:54.843Z,80.70
2023-03-12T01:18:22.541Z,80.50
2023-03-12T01:20:49.671Z,80.50
2023-03-12T01:23:16.565Z,80.60
2023-03-12T01:25:43.516Z,80.30
2023-03-12T01:28:10.469Z,80.50
2023-03-12T01:30:37.284Z,80.30
2023-03-12T01:33:04.477Z,80.00
2023-03-12T01:35:35.361Z,81.60
2023-03-12T01:38:02.115Z,80.30
2023-03-12T01:40:29.337Z,81.30
2023-03-12T01:42:58.102Z,80.20
2023-03-12T01:46:02.926Z,81.40
2023-03-12T01:48:35.691Z,80.20
2023-03-12T01:51:02.986Z,81.20
2023-03-12T01:53:30.850Z,81.40
2023-03-12T01:55:59.486Z,81.40
2023-03-12T01:58:27.623Z,81.10
2023-03-12T02:00:55.382Z,79.90
2023-03-12T02:03:22.922Z,81.10
2023-03-12T02:05:58.121Z,81.10
2023-03-12T02:08:25.161Z,81.10
2023-03-12T02:10:52.109Z,80.90
2023-03-12T02:13:19.136Z,81.00
2023-03-12T02:15:46.121Z,81.20
2023-03-12T02:18:18.010Z,81.20
2023-03-12T02:20:47.784Z,81.30
2023-03-12T02:23:24.849Z,81.50
2023-03-12T02:25:53.342Z,81.50
2023-03-12T02:28:23.764Z,81.50
2023-03-12T02:30:53.801Z,81.50
2023-03-12T02:33:20.610Z,81.70
2023-03-12T02:35:48.522Z,81.50
2023-03-12T02:38:33.878Z,81.80
2023-03-12T02:41:05.735Z,81.50
2023-03-12T02:43:32.954Z,81.90
2023-03-12T02:45:59.894Z,81.90
2023-03-12T02:48:27.120Z,81.90
2023-03-12T02:50:53.884Z,81.80
2023-03-12T02:53:20.680Z,82.00
2023-03-12T02:55:47.461Z,82.00
2023-03-12T02:58:14.225Z,82.20
2023-03-12T03:00:40.937Z,82.20
2023-03-12T03:03:07.834Z,82.20
2023-03-12T03:05:37.238Z,82.30
2023-03-12T03:08:04.913Z,82.20
2023-03-12T03:10:31.998Z,82.20
2023-03-12T03:12:58.947Z,82.20
2023-03-12T03:15:25.858Z,82.30
2023-03-12T03:17:52.641Z,82.30
2023-03-12T03:20:20.071Z,82.30
2023-03-12T03:22:46.878Z,82.40
2023-03-12T03:25:13.739Z,82.60
2023-03-12T03:27:40.545Z,82.40
2023-03-12T03:30:08.100Z,82.60
2023-03-12T03:32:34.909Z,82.50
2023-03-12T03:35:01.923Z,82.80
2023-03-12T03:37:28.695Z,82.70
2023-03-12T03:39:55.409Z,82.70
2023-03-12T03:42:22.434Z,82.80
2023-03-12T03:44:49.211Z,82.50
2023-03-12T03:47:16.175Z,82.90
2023-03-12T03:49:43.002Z,82.70
2023-03-12T03:52:09.820Z,83.00
2023-03-12T03:54:37.511Z,82.60
2023-03-12T03:57:04.685Z,82.80
2023-03-12T03:59:32.413Z,82.70
2023-03-12T04:01:59.551Z,82.80
2023-03-12T04:04:26.371Z,82.80
2023-03-12T04:06:53.163Z,82.70
2023-03-12T04:09:19.936Z,82.80
2023-03-12T04:11:46.706Z,82.70
2023-03-12T04:14:13.495Z,82.50
2023-03-12T04:16:40.334Z,82.70
2023-03-12T04:19:07.148Z,82.60
2023-03-12T04:21:34.006Z,82.90
2023-03-12T04:24:00.821Z,82.90
2023-03-12T04:26:27.545Z,83.00
2023-03-12T04:28:54.340Z,83.00
2023-03-12T04:31:21.184Z,83.10
2023-03-12T04:33:48.108Z,82.70
2023-03-12T04:36:16.238Z,82.90
2023-03-12T04:38:43.034Z,82.90
2023-03-12T04:41:13.060Z,83.20
2023-03-12T04:43:40.287Z,82.80
2023-03-12T04:46:08.233Z,83.00
2023-03-12T04:48:35.492Z,83.00
2023-03-12T04:51:03.859Z,83.00
2023-03-12T04:53:30.706Z,83.40
2023-03-12T04:55:57.454Z,83.20
2023-03-12T04:58:24.298Z,83.00
2023-03-12T05:00:51.488Z,83.40
2023-03-12T05:03:18.901Z,83.00
2023-03-12T05:05:46.018Z,83.10
2023-03-12T05:08:12.851Z,83.10
2023-03-12T05:10:40.121Z,82.90
2023-03-12T05:13:18.632Z,82.90
2023-03-12T05:15:46.471Z,82.90
2023-03-12T05:18:13.513Z,82.70
2023-03-12T05:20:40.288Z,83.00
2023-03-12T05:23:07.050Z,82.90
2023-03-12T05:25:33.804Z,82.90
2023-03-12T05:28:00.709Z,82.80
2023-03-12T05:30:27.510Z,82.90
2023-03-12T05:32:54.286Z,82.70
2023-03-12T05:35:21.051Z,83.00
2023-03-12T05:37:47.958Z,83.10
2023-03-12T05:40:14.760Z,83.00
2023-03-12T05:42:41.549Z,82.90
2023-03-12T05:45:08.948Z,82.90
2023-03-12T05:47:35.788Z,82.70
2023-03-12T05:50:02.665Z,82.90
2023-03-12T05:52:29.506Z,82.50
2023-03-12T05:54:57.266Z,82.60
2023-03-12T05:57:23.973Z,82.30
2023-03-12T05:59:50.728Z,82.60
2023-03-12T06:02:17.555Z,82.70
2023-03-12T06:04:44.414Z,82.50
2023-03-12T06:07:11.197Z,82.70
2023-03-12T06:09:38.089Z,82.80
2023-03-12T06:12:05.157Z,83.10
2023-03-12T06:14:31.975Z,82.90
2023-03-12T06:16:58.814Z,82.70
2023-03-12T06:19:25.640Z,82.80
2023-03-12T06:21:52.468Z,82.80
2023-03-12T06:24:19.315Z,82.80
2023-03-12T06:26:46.171Z,83.00
2023-03-12T06:29:12.967Z,83.00
2023-03-12T06:31:42.083Z,82.60
2023-03-12T06:34:10.280Z,82.90
2023-03-12T06:36:37.287Z,82.80
2023-03-12T06:39:06.448Z,83.10
2023-03-12T06:41:33.952Z,83.20
2023-03-12T06:44:03.535Z,83.30
2023-03-12T06:46:30.326Z,83.30
2023-03-12T06:48:57.176Z,83.40
2023-03-12T06:51:24.103Z,83.20
2023-03-12T06:53:50.900Z,83.40
2023-03-12T06:56:17.726Z,83.40
2023-03-12T06:58:44.825Z,83.10
2023-03-12T07:01:11.868Z,82.50
2023-03-12T07:03:38.614Z,82.10
2023-03-12T07:06:12.786Z,81.70
2023-03-12T07:08:39.574Z,80.70
2023-03-12T07:11:06.333Z,80.00
2023-03-12T07:13:33.083Z,79.10
2023-03-12T07:15:59.940Z,77.50
2023-03-12T07:18:26.710Z,75.90
2023-03-12T07:20:53.857Z,74.20
2023-03-12T07:23:21.349Z,73.10
2023-03-12T07:25:48.332Z,73.10
2023-03-12T07:28:15.689Z,71.70
2023-03-12T07:30:50.145Z,71.20
2023-03-12T07:33:19.502Z,70.80
2023-03-12T07:35:50.076Z,69.80
2023-03-12T07:38:18.154Z,69.60
2023-03-12T07:40:45.042Z,68.90
2023-03-12T07:43:12.785Z,69.80
2023-03-12T07:45:39.922Z,69.50
2023-03-12T07:48:07.749Z,69.10
2023-03-12T07:50:36.058Z,68.70
2023-03-12T07:53:04.626Z,68.70
2023-03-12T07:55:33.157Z,68.30
2023-03-12T07:58:00.690Z,68.60
2023-03-12T08:00:29.157Z,68.60
2023-03-12T08:02:56.506Z,68.30
2023-03-12T08:05:24.920Z,68.50
2023-03-12T08:07:52.488Z,68.40
2023-03-12T08:10:20.060Z,68.10
2023-03-12T08:12:47.096Z,66.80
2023-03-12T08:15:14.269Z,67.30
2023-03-12T08:17:41.403Z,68.00
2023-03-12T08:20:10.229Z,67.70
2023-03-12T08:22:37.729Z,66.90
2023-03-12T08:25:05.149Z,67.10
2023-03-12T08:27:32.180Z,66.60
2023-03-12T08:30:00.640Z,67.00
2023-03-12T08:32:27.825Z,65.20
2023-03-12T08:34:54.697Z,65.50
2023-03-12T08:37:22.023Z,65.60
2023-03-12T08:39:48.772Z,64.60
2023-03-12T08:42:15.528Z,64.40
2023-03-12T08:44:42.265Z,64.10
2023-03-12T08:47:08.998Z,64.30
2023-03-12T08:49:35.878Z,63.30
2023-03-12T08:52:02.838Z,63.70
2023-03-12T08:54:29.637Z,64.20
2023-03-12T08:56:56.669Z,63.70
2023-03-12T08:59:23.565Z,62.30
2023-03-12T09:01:51.205Z,62.40
2023-03-12T09:04:18.602Z,61.70
2023-03-12T09:06:45.481Z,62.00
2023-03-12T09:09:12.800Z,62.10
2023-03-12T09:11:42.676Z,61.50
2023-03-12T09:16:57.962Z,60.60
2023-03-12T09:19:25.058Z,60.50
2023-03-12T09:21:51.863Z,60.60
2023-03-12T09:24:18.791Z,60.00
2023-03-12T09:26:45.829Z,59.80
2023-03-12T09:29:12.840Z,60.40
2023-03-12T09:31:39.695Z,60.20
2023-03-12T09:34:06.643Z,59.60
2023-03-12T09:36:33.824Z,57.70
2023-03-12T09:39:00.861Z,59.50
2023-03-12T09:41:34.440Z,58.90
2023-03-12T09:44:28.246Z,57.00
2023-03-12T09:46:59.291Z,57.60
2023-03-12T09:49:38.107Z,56.70
2023-03-12T09:52:34.138Z,56.90
2023-03-12T09:55:08.457Z,57.10
2023-03-12T09:57:35.287Z,56.20
2023-03-12T10:00:02.451Z,55.50
2023-03-12T10:02:51.005Z,55.60
2023-03-12T10:05:39.564Z,55.90
2023-03-12T10:08:30.200Z,55.00
2023-03-12T10:11:23.934Z,55.60
2023-03-12T10:14:03.129Z,55.40
2023-03-12T10:16:45.193Z,54.30
2023-03-12T10:19:32.196Z,54.00
2023-03-12T10:22:15.378Z,54.30
2023-03-12T10:25:01.057Z,53.60
2023-03-12T10:27:38.741Z,53.10
2023-03-12T10:30:18.055Z,53.10
2023-03-12T10:32:50.272Z,53.70
2023-03-12T10:35:24.878Z,52.40
2023-03-12T10:37:56.469Z,52.10
2023-03-12T10:40:26.028Z,50.90
2023-03-12T10:42:53.092Z,50.30
2023-03-12T10:45:19.781Z,51.10
2023-03-12T10:47:52.865Z,50.40
2023-03-12T10:50:30.212Z,50.90
2023-03-12T10:53:18.876Z,50.90
2023-03-12T10:56:08.496Z,51.30
2023-03-12T10:58:38.377Z,50.40
2023-03-12T11:01:15.862Z,50.30
2023-03-12T11:03:43.492Z,49.90
2023-03-12T11:06:20.123Z,48.50
2023-03-12T11:09:16.252Z,48.90
2023-03-12T11:11:47.435Z,49.60
2023-03-12T11:14:20.707Z,48.30
2023-03-12T11:16:47.929Z,48.90
2023-03-12T11:19:26.901Z,47.70
2023-03-12T11:22:11.811Z,47.20
2023-03-12T11:24:59.775Z,48.00
2023-03-12T11:27:26.529Z,48.00
2023-03-12T11:29:54.408Z,47.50
2023-03-12T11:32:41.195Z,46.20
2023-03-12T11:35:18.226Z,47.30
2023-03-12T11:38:07.395Z,47.50
2023-03-12T11:40:58.493Z,47.40
2023-03-12T11:43:55.412Z,47.10
2023-03-12T11:46:27.160Z,47.30
2023-03-12T11:49:12.772Z,46.80
2023-03-12T11:52:07.291Z,46.00
2023-03-12T11:54:33.936Z,46.20
2023-03-12T11:57:22.010Z,46.30
2023-03-12T12:00:18.152Z,46.00
2023-03-12T12:03:05.848Z,45.30
2023-03-12T12:05:44.721Z,45.70
2023-03-12T12:08:36.269Z,44.70
2023-03-12T12:11:28.509Z,45.10
2023-03-12T12:14:06.937Z,45.30
2023-03-12T12:16:45.460Z,45.20
2023-03-12T12:19:27.511Z,44.80
2023-03-12T12:22:46.852Z,44.80
2023-03-12T12:25:22.788Z,45.00
2023-03-12T12:28:01.209Z,44.50
2023-03-12T12:30:53.218Z,44.90
2023-03-12T12:33:45.253Z,43.10
2023-03-12T12:36:13.673Z,43.10
2023-03-12T12:39:06.157Z,42.90
2023-03-12T12:41:41.667Z,43.10
2023-03-12T12:44:18.897Z,43.10
2023-03-12T12:46:52.580Z,43.30
2023-03-12T12:49:36.047Z,43.60
2023-03-12T12:52:07.601Z,43.30
2023-03-12T12:54:43.677Z,42.30
2023-03-12T12:57:21.547Z,42.60
2023-03-12T13:00:07.524Z,42.10
2023-03-12T13:02:38.294Z,41.30
2023-03-12T13:05:22.683Z,41.50
2023-03-12T13:07:49.504Z,41.80
2023-03-12T13:10:34.341Z,41.20
2023-03-12T13:13:18.603Z,41.10
2023-03-12T13:15:45.687Z,41.20
2023-03-12T13:18:28.559Z,41.70
2023-03-12T13:20:58.001Z,41.10
2023-03-12T13:23:49.381Z,40.90
2023-03-12T13:26:27.651Z,41.00
2023-03-12T13:29:06.082Z,40.80
2023-03-12T13:31:39.844Z,41.00
2023-03-12T13:34:06.552Z,41.10
2023-03-12T13:36:37.164Z,41.20
2023-03-12T13:39:16.054Z,40.60
2023-03-12T13:41:50.924Z,41.10
2023-03-12T13:44:27.279Z,42.10
2023-03-12T13:47:10.906Z,41.00
2023-03-12T13:49:44.969Z,41.40
2023-03-12T13:52:14.561Z,40.50
2023-03-12T13:54:45.477Z,40.70
2023-03-12T13:57:25.574Z,40.90
2023-03-12T13:59:52.795Z,40.90
2023-03-12T14:02:30.030Z,41.30
2023-03-12T14:05:06.112Z,41.40
2023-03-12T14:07:47.226Z,41.00
2023-03-12T14:10:28.432Z,41.70
2023-03-12T14:13:12.577Z,41.00
2023-03-12T14:15:58.579Z,40.90
2023-03-12T14:18:28.499Z,41.20
2023-03-12T14:20:59.448Z,40.50
2023-03-12T14:23:30.832Z,40.30
2023-03-12T14:26:03.799Z,40.60
2023-03-12T14:28:33.883Z,39.90
2023-03-12T14:31:13.711Z,39.60
2023-03-12T14:34:00.284Z,39.50
2023-03-12T14:36:49.318Z,39.80
2023-03-12T14:39:27.240Z,39.30
2023-03-12T14:42:02.133Z,39.30
2023-03-12T14:44:30.741Z,39.30
2023-03-12T14:47:03.154Z,39.00
2023-03-12T14:49:32.405Z,39.50
2023-03-12T14:51:59.189Z,38.70
2023-03-12T14:54:28.002Z,39.50
2023-03-12T14:56:54.882Z,38.60
2023-03-12T14:59:21.559Z,38.70
2023-03-12T15:01:48.682Z,38.60
2023-03-12T15:04:20.507Z,38.10
2023-03-12T15:06:54.875Z,38.20
2023-03-12T15:09:28.548Z,38.70
2023-03-12T15:12:07.889Z,38.10
2023-03-12T15:14:41.018Z,38.40
2023-03-12T15:17:08.792Z,38.10
2023-03-12T15:19:39.548Z,37.90
2023-03-12T15:22:18.025Z,37.70
2023-03-12T15:24:45.242Z,37.40
2023-03-12T15:27:28.756Z,37.70
2023-03-12T15:29:57.374Z,37.70
2023-03-12T15:32:26.092Z,37.70
2023-03-12T15:34:55.506Z,37.30
2023-03-12T15:37:38.226Z,37.30
2023-03-12T15:40:16.737Z,37.70
2023-03-12T15:42:46.772Z,37.50
2023-03-12T15:45:21.552Z,37.10
2023-03-12T15:47:49.643Z,37.30
2023-03-12T15:50:29.833Z,37.60
2023-03-12T15:53:00.958Z,39.10
2023-03-12T15:55:33.183Z,37.70
2023-03-12T15:58:00.745Z,39.20
2023-03-12T16:00:31.397Z,39.00
2023-03-12T16:03:06.844Z,39.00
2023-03-12T16:05:39.440Z,38.80
2023-03-12T16:08:22.136Z,39.40
2023-03-12T16:10:49.888Z,38.80
2023-03-12T16:13:20.167Z,39.40
2023-03-12T16:15:48.079Z,39.70
2023-03-12T16:18:20.534Z,39.50
2023-03-12T16:20:48.763Z,40.00
2023-03-12T16:23:16.245Z,39.70
2023-03-12T16:25:51.638Z,40.70
2023-03-12T16:28:20.610Z,40.40
2023-03-12T16:30:47.398Z,40.10
2023-03-12T16:33:20.085Z,39.30
2023-03-12T16:35:47.134Z,39.90
2023-03-12T16:38:14.265Z,40.30
2023-03-12T16:40:45.410Z,40.40
2023-03-12T16:43:19.480Z,41.00
2023-03-12T16:45:48.061Z,41.60
2023-03-12T16:48:18.183Z,41.20
2023-03-12T16:50:50.588Z,41.50
2023-03-12T16:53:17.721Z,41.80
2023-03-12T16:55:48.316Z,41.70
2023-03-12T16:58:18.337Z,41.80
2023-03-12T17:00:46.337Z,41.70
2023-03-12T17:03:36.865Z,42.10
2023-03-12T17:06:05.797Z,42.20
2023-03-12T17:08:32.678Z,42.50
2023-03-12T17:11:00.159Z,43.10
2023-03-12T17:13:28.825Z,43.20
2023-03-12T17:15:55.780Z,43.70
2023-03-12T17:18:22.945Z,43.80
2023-03-12T17:20:51.885Z,44.40
2023-03-12T17:23:19.315Z,44.40
2023-03-12T17:25:46.422Z,44.60
2023-03-12T17:28:15.358Z,44.90
2023-03-12T17:30:44.120Z,45.40
2023-03-12T17:33:16.182Z,45.70
2023-03-12T17:35:43.239Z,45.60
2023-03-12T17:38:10.986Z,46.50
2023-03-12T17:40:44.285Z,46.80
2023-03-12T17:43:11.410Z,46.70
2023-03-12T17:45:38.496Z,47.10
2023-03-12T17:48:05.513Z,47.40
2023-03-12T17:50:32.337Z,47.80
2023-03-12T17:52:59.209Z,48.40
2023-03-12T17:55:25.996Z,48.50
2023-03-12T17:57:52.746Z,48.40
2023-03-12T18:00:21.970Z,50.20
2023-03-12T18:02:49.577Z,49.00
2023-03-12T18:05:16.474Z,50.40
2023-03-12T18:07:43.250Z,51.20
2023-03-12T18:10:11.582Z,51.80
2023-03-12T18:12:40.209Z,51.80
2023-03-12T18:15:10.917Z,51.60
2023-03-12T18:17:37.990Z,52.20
2023-03-12T18:20:10.181Z,52.20
2023-03-12T18:22:38.675Z,53.00
2023-03-12T18:25:06.397Z,53.30
2023-03-12T18:27:33.149Z,53.50
2023-03-12T18:29:59.954Z,54.20
2023-03-12T18:32:26.770Z,54.30
2023-03-12T18:34:53.634Z,55.30
2023-03-12T18:37:20.873Z,55.60
2023-03-12T18:39:48.051Z,56.10
2023-03-12T18:42:15.024Z,56.20
2023-03-12T18:44:41.998Z,56.40
2023-03-12T18:47:08.824Z,56.50
2023-03-12T18:49:35.639Z,56.80
2023-03-12T18:52:02.375Z,57.60
2023-03-12T18:54:29.176Z,57.70
2023-03-12T18:56:56.038Z,57.70
2023-03-12T18:59:23.049Z,58.20
2023-03-12T19:01:49.865Z,57.90
2023-03-12T19:04:18.660Z,58.00
2023-03-12T19:06:51.231Z,58.20
2023-03-12T19:09:19.096Z,58.10
2023-03-12T19:11:49.124Z,58.40
2023-03-12T19:14:16.271Z,58.40
2023-03-12T19:16:43.255Z,58.50
2023-03-12T19:19:10.108Z,59.30
2023-03-12T19:21:36.929Z,59.30
2023-03-12T19:24:03.909Z,59.90
2023-03-12T19:26:30.855Z,60.10
2023-03-12T19:28:57.632Z,60.70
2023-03-12T19:31:25.505Z,60.70
2023-03-12T19:33:52.643Z,61.00
2023-03-12T19:36:19.658Z,60.90
2023-03-12T19:38:46.440Z,61.20
2023-03-12T19:41:13.164Z,61.40
2023-03-12T19:43:40.897Z,61.50
2023-03-12T19:46:07.712Z,61.50
2023-03-12T19:48:34.712Z,62.10
2023-03-12T19:51:09.142Z,61.80
2023-03-12T19:53:36.662Z,62.00
2023-03-12T19:56:04.039Z,62.30
2023-03-12T19:58:33.074Z,62.60
2023-03-12T20:01:01.310Z,62.60
2023-03-12T20:03:30.203Z,63.40
2023-03-12T20:05:57.293Z,63.10
2023-03-12T20:08:27.965Z,63.10
2023-03-12T20:11:10.567Z,63.30
2023-03-12T20:13:40.334Z,63.00
2023-03-12T20:16:08.557Z,63.20
2023-03-12T20:18:35.499Z,62.60
2023-03-12T20:21:03.987Z,62.60
2023-03-12T20:23:31.409Z,62.00
2023-03-12T20:25:59.054Z,61.90
2023-03-12T20:28:26.009Z,61.40
2023-03-12T20:30:53.846Z,61.50
2023-03-12T20:33:21.229Z,61.40
2023-03-12T20:35:50.297Z,61.30
2023-03-12T20:38:17.529Z,61.20
2023-03-12T20:40:47.387Z,61.60
2023-03-12T20:43:14.219Z,61.50
2023-03-12T20:45:41.132Z,61.50
2023-03-12T20:48:08.036Z,61.60
2023-03-12T20:50:38.095Z,61.50
2023-03-12T20:53:05.065Z,61.50
2023-03-12T20:55:31.907Z,61.50
2023-03-12T20:57:59.494Z,61.50
2023-03-12T21:00:26.285Z,61.10
2023-03-12T21:02:53.824Z,61.60
2023-03-12T21:05:23.866Z,61.40
2023-03-12T21:07:53.299Z,61.50
2023-03-12T21:10:21.507Z,61.90
2023-03-12T21:12:48.565Z,62.00
2023-03-12T21:15:15.481Z,62.30
2023-03-12T21:17:42.416Z,62.40
2023-03-12T21:20:17.263Z,62.30
2023-03-12T21:22:44.654Z,62.60
2023-03-12T21:25:11.737Z,62.70
2023-03-12T21:27:49.932Z,63.00
2023-03-12T21:30:17.966Z,62.80
2023-03-12T21:32:44.805Z,62.50
2023-03-12T21:35:11.745Z,62.30
2023-03-12T21:37:38.563Z,62.40
2023-03-12T21:40:05.778Z,62.60
2023-03-12T21:42:33.279Z,62.40
2023-03-12T21:45:00.331Z,62.20
2023-03-12T21:47:28.562Z,63.40
2023-03-12T21:49:55.321Z,63.50
2023-03-12T21:52:22.208Z,63.10
2023-03-12T21:54:49.069Z,63.20
2023-03-12T21:57:15.812Z,63.40
2023-03-12T21:59:42.639Z,63.40
2023-03-12T22:02:12.863Z,63.50
2023-03-12T22:04:40.239Z,63.20
2023-03-12T22:07:07.726Z,62.80
2023-03-12T22:09:34.546Z,63.20
2023-03-12T22:12:01.838Z,63.40
2023-03-12T22:14:28.865Z,63.90
2023-03-12T22:16:55.704Z,63.80
2023-03-12T22:19:22.495Z,63.60
2023-03-12T22:21:49.242Z,63.50
2023-03-12T22:24:16.143Z,63.20
2023-03-12T22:26:42.925Z,63.60
2023-03-12T22:29:09.710Z,62.90
2023-03-12T22:31:36.625Z,63.20
2023-03-12T22:34:03.423Z,63.10
2023-03-12T22:36:30.218Z,63.20
2023-03-12T22:38:57.753Z,62.80
2023-03-12T22:41:26.706Z,63.20
2023-03-12T22:43:55.926Z,63.20
2023-03-12T22:46:25.259Z,63.20
2023-03-12T22:48:55.087Z,62.70
2023-03-12T22:51:22.554Z,63.00
2023-03-12T22:53:49.447Z,63.10
2023-03-12T22:56:17.563Z,63.10
2023-03-12T22:58:44.579Z,63.20
2023-03-12T23:01:17.248Z,63.60
2023-03-12T23:03:45.658Z,63.40
2023-03-12T23:06:17.479Z,63.40
2023-03-12T23:08:47.485Z,63.60
2023-03-12T23:11:15.538Z,63.50
2023-03-12T23:13:44.653Z,63.80
2023-03-12T23:16:17.543Z,64.00
2023-03-12T23:18:45.028Z,63.70
2023-03-12T23:21:15.634Z,64.00
2023-03-12T23:23:43.568Z,64.50
2023-03-12T23:26:22.950Z,64.60
2023-03-12T23:28:53.242Z,64.50
2023-03-12T23:31:20.729Z,64.90
2023-03-12T23:33:47.638Z,65.10
2023-03-12T23:36:16.999Z,64.70
2023-03-12T23:38:44.562Z,64.70
2023-03-12T23:41:17.378Z,65.00
2023-03-12T23:43:44.532Z,65.50
2023-03-12T23:46:12.140Z,65.30
2023-03-12T23:48:39.830Z,65.70
2023-03-12T23:51:18.119Z,66.00
2023-03-12T23:53:47.066Z,66.00
2023-03-12T23:56:17.262Z,66.20
2023-03-12T23:58:45.102Z,66.00
